createdAt,value
2022-07-26T00:01:18.379Z,1.98
2022-07-26T00:03:46.974Z,1.77
2022-07-26T00:06:19.254Z,2.10
2022-07-26T00:08:48.066Z,2.20
2022-07-26T00:11:16.436Z,1.75
2022-07-26T00:13:44.809Z,1.90
2022-07-26T00:16:13.282Z,2.22
2022-07-26T00:18:41.545Z,1.77
2022-07-26T00:21:09.784Z,2.00
2022-07-26T00:23:41.254Z,1.90
2022-07-26T00:26:09.816Z,1.63
2022-07-26T00:28:38.538Z,1.80
2022-07-26T00:31:06.777Z,1.67
2022-07-26T00:33:34.917Z,2.03
2022-07-26T00:36:02.969Z,2.58
2022-07-26T00:38:31.144Z,2.10
2022-07-26T00:41:01.602Z,2.20
2022-07-26T00:43:29.692Z,1.77
2022-07-26T00:45:58.270Z,2.00
2022-07-26T00:48:26.463Z,1.75
2022-07-26T00:50:55.933Z,1.90
2022-07-26T00:53:24.176Z,1.88
2022-07-26T00:55:52.627Z,2.22
2022-07-26T00:58:22.057Z,2.20
2022-07-26T01:00:50.240Z,1.77
2022-07-26T01:03:18.346Z,2.40
2022-07-26T01:05:47.086Z,2.33
2022-07-26T01:08:15.234Z,1.90
2022-07-26T01:10:43.793Z,2.25
2022-07-26T01:13:13.194Z,2.28
2022-07-26T01:15:42.695Z,1.88
2022-07-26T01:18:10.767Z,2.25
2022-07-26T01:20:39.272Z,2.28
2022-07-26T01:23:08.702Z,2.10
2022-07-26T01:25:42.418Z,2.30
2022-07-26T01:28:19.777Z,2.15
2022-07-26T01:30:49.431Z,1.92
2022-07-26T01:33:17.481Z,2.28
2022-07-26T01:35:45.555Z,2.00
2022-07-26T01:38:15.369Z,2.08
2022-07-26T01:40:43.408Z,2.05
2022-07-26T01:43:11.465Z,1.98
2022-07-26T01:45:39.587Z,2.20
2022-07-26T01:48:08.512Z,2.17
2022-07-26T01:50:37.349Z,2.88
2022-07-26T01:53:06.084Z,1.85
2022-07-26T01:55:36.010Z,2.47
2022-07-26T01:58:05.052Z,2.15
2022-07-26T02:00:33.412Z,2.35
2022-07-26T02:03:01.809Z,2.40
2022-07-26T02:05:30.029Z,2.10
2022-07-26T02:07:58.397Z,2.38
2022-07-26T02:10:49.526Z,2.40
2022-07-26T02:13:19.221Z,2.20
2022-07-26T02:15:49.271Z,2.20
2022-07-26T02:18:17.330Z,2.22
2022-07-26T02:20:45.499Z,2.63
2022-07-26T02:23:14.156Z,2.65
2022-07-26T02:25:42.333Z,2.00
2022-07-26T02:28:10.305Z,2.42
2022-07-26T02:30:39.717Z,2.33
2022-07-26T02:33:08.387Z,2.30
2022-07-26T02:35:36.918Z,2.17
2022-07-26T02:38:07.093Z,2.50
2022-07-26T02:40:36.039Z,2.40
2022-07-26T02:43:04.737Z,2.05
2022-07-26T02:45:32.756Z,2.38
2022-07-26T02:48:02.549Z,2.28
2022-07-26T02:50:31.145Z,2.13
2022-07-26T02:52:59.170Z,2.10
2022-07-26T02:55:27.968Z,2.30
2022-07-26T02:57:56.318Z,1.85
2022-07-26T03:00:26.955Z,2.33
2022-07-26T03:02:55.122Z,2.22
2022-07-26T03:05:24.651Z,2.40
2022-07-26T03:07:52.809Z,2.30
2022-07-26T03:10:20.815Z,1.92
2022-07-26T03:12:48.785Z,2.20
2022-07-26T03:15:16.790Z,2.28
2022-07-26T03:17:44.829Z,2.42
2022-07-26T03:20:14.093Z,1.98
2022-07-26T03:22:44.065Z,2.47
2022-07-26T03:25:12.104Z,2.28
2022-07-26T03:27:40.093Z,2.58
2022-07-26T03:30:09.410Z,2.28
2022-07-26T03:32:37.385Z,2.75
2022-07-26T03:35:06.071Z,2.20
2022-07-26T03:37:46.077Z,2.28
2022-07-26T03:40:16.804Z,2.58
2022-07-26T03:42:45.502Z,2.67
2022-07-26T03:45:14.256Z,2.83
2022-07-26T03:47:42.754Z,2.70
2022-07-26T03:50:13.507Z,2.55
2022-07-26T03:52:42.040Z,2.30
2022-07-26T03:55:28.305Z,2.47
2022-07-26T03:57:57.665Z,2.53
2022-07-26T04:00:25.908Z,2.80
2022-07-26T04:02:53.997Z,2.50
2022-07-26T04:05:23.779Z,2.50
2022-07-26T04:07:54.632Z,2.50
2022-07-26T04:10:24.261Z,2.20
2022-07-26T04:12:52.457Z,2.30
2022-07-26T04:15:21.960Z,2.55
2022-07-26T04:17:50.265Z,2.30
2022-07-26T04:20:19.004Z,2.63
2022-07-26T04:22:47.101Z,2.65
2022-07-26T04:25:15.291Z,2.53
2022-07-26T04:27:43.793Z,2.25
2022-07-26T04:30:15.081Z,2.30
2022-07-26T04:32:46.791Z,2.40
2022-07-26T04:35:16.340Z,2.70
2022-07-26T04:37:45.208Z,2.53
2022-07-26T04:40:17.966Z,3.10
2022-07-26T04:42:50.810Z,2.95
2022-07-26T04:45:19.509Z,2.35
2022-07-26T04:47:50.876Z,2.55
2022-07-26T04:50:20.076Z,2.33
2022-07-26T04:52:48.367Z,2.75
2022-07-26T04:55:17.534Z,2.60
2022-07-26T04:57:47.336Z,2.35
2022-07-26T05:00:23.443Z,2.50
2022-07-26T05:02:55.103Z,2.92
2022-07-26T05:05:24.339Z,2.80
2022-07-26T05:07:54.188Z,2.55
2022-07-26T05:10:24.163Z,2.75
2022-07-26T05:12:52.200Z,2.35
2022-07-26T05:15:20.612Z,2.65
2022-07-26T05:17:48.889Z,2.78
2022-07-26T05:20:19.096Z,2.60
2022-07-26T05:22:47.217Z,2.83
2022-07-26T05:25:15.309Z,2.65
2022-07-26T05:27:43.454Z,2.78
2022-07-26T05:30:12.254Z,2.65
2022-07-26T05:32:40.252Z,2.72
2022-07-26T05:35:09.680Z,2.50
2022-07-26T05:37:39.254Z,2.50
2022-07-26T05:40:08.612Z,2.83
2022-07-26T05:42:36.608Z,3.00
2022-07-26T05:45:05.339Z,2.95
2022-07-26T05:47:33.368Z,2.95
2022-07-26T05:50:01.415Z,2.80
2022-07-26T05:52:29.406Z,2.83
2022-07-26T05:54:58.798Z,2.88
2022-07-26T05:57:28.421Z,3.00
2022-07-26T05:59:56.427Z,3.22
2022-07-26T06:02:24.723Z,3.28
2022-07-26T06:04:53.917Z,2.95
2022-07-26T06:07:21.921Z,3.08
2022-07-26T06:09:49.885Z,2.75
2022-07-26T06:12:19.345Z,2.90
2022-07-26T06:14:47.281Z,2.80
2022-07-26T06:17:15.285Z,3.00
2022-07-26T06:19:47.522Z,3.13
2022-07-26T06:22:15.830Z,3.53
2022-07-26T06:24:43.802Z,3.60
2022-07-26T06:27:11.887Z,3.53
2022-07-26T06:29:41.635Z,3.33
2022-07-26T06:32:09.709Z,3.05
2022-07-26T06:34:37.752Z,3.00
2022-07-26T06:37:05.737Z,3.25
2022-07-26T06:39:33.723Z,4.20
2022-07-26T06:42:01.688Z,3.80
2022-07-26T06:44:30.417Z,4.03
2022-07-26T06:46:59.752Z,3.90
2022-07-26T06:49:27.811Z,4.15
2022-07-26T06:51:57.601Z,5.00
2022-07-26T06:54:25.674Z,4.53
2022-07-26T06:56:53.666Z,5.07
2022-07-26T06:59:21.602Z,5.13
2022-07-26T07:01:57.496Z,4.38
2022-07-26T07:04:31.289Z,4.82
2022-07-26T07:07:02.738Z,5.35
2022-07-26T07:09:34.022Z,5.38
2022-07-26T07:12:09.536Z,4.70
2022-07-26T07:14:38.992Z,5.95
2022-07-26T07:17:12.196Z,4.97
2022-07-26T07:19:42.896Z,5.70
2022-07-26T07:22:12.289Z,6.47
2022-07-26T07:24:41.881Z,5.32
2022-07-26T07:27:10.423Z,5.82
2022-07-26T07:29:41.217Z,5.45
2022-07-26T07:32:18.335Z,6.00
2022-07-26T07:34:49.560Z,6.13
2022-07-26T07:37:17.620Z,6.22
2022-07-26T07:39:49.991Z,6.05
2022-07-26T07:42:19.195Z,5.75
2022-07-26T07:44:49.967Z,6.03
2022-07-26T07:47:18.005Z,6.47
2022-07-26T07:49:45.973Z,6.50
2022-07-26T07:52:15.300Z,6.05
2022-07-26T07:54:43.309Z,6.13
2022-07-26T07:57:11.684Z,6.50
2022-07-26T07:59:42.665Z,7.10
2022-07-26T08:02:12.681Z,7.55
2022-07-26T08:04:40.776Z,8.02
2022-07-26T08:07:08.833Z,6.45
2022-07-26T08:09:38.190Z,6.93
2022-07-26T08:12:11.451Z,7.65
2022-07-26T08:14:41.409Z,6.90
2022-07-26T08:17:09.781Z,6.93
2022-07-26T08:19:42.302Z,6.43
2022-07-26T08:22:11.078Z,7.50
2022-07-26T08:24:40.563Z,7.20
2022-07-26T08:27:08.625Z,7.40
2022-07-26T08:29:36.612Z,8.10
2022-07-26T08:32:05.029Z,7.97
2022-07-26T08:34:34.017Z,8.27
2022-07-26T08:37:16.478Z,8.73
2022-07-26T08:39:47.599Z,10.93
2022-07-26T08:42:16.776Z,10.25
2022-07-26T08:44:45.950Z,11.90
2022-07-26T08:47:15.024Z,12.60
2022-07-26T08:49:43.813Z,12.45
2022-07-26T08:52:14.092Z,13.23
2022-07-26T08:54:46.490Z,12.32
2022-07-26T08:57:15.359Z,11.90
2022-07-26T08:59:43.931Z,12.75
2022-07-26T09:02:13.762Z,12.43
2022-07-26T09:04:45.082Z,11.73
2022-07-26T09:07:15.440Z,10.95
2022-07-26T09:10:00.322Z,10.90
2022-07-26T09:12:30.547Z,11.15
2022-07-26T09:14:59.601Z,10.02
2022-07-26T09:17:42.063Z,10.80
2022-07-26T09:20:12.375Z,8.88
2022-07-26T09:22:58.276Z,9.48
2022-07-26T09:25:29.074Z,10.00
2022-07-26T09:27:57.221Z,10.57
2022-07-26T09:30:25.278Z,9.23
2022-07-26T09:33:02.266Z,8.15
2022-07-26T09:35:51.290Z,9.13
2022-07-26T09:38:21.050Z,9.30
2022-07-26T09:40:51.499Z,8.48
2022-07-26T09:43:24.527Z,9.98
2022-07-26T09:46:04.621Z,9.65
2022-07-26T09:48:59.304Z,10.40
2022-07-26T09:51:36.802Z,9.52
2022-07-26T09:54:05.514Z,11.20
2022-07-26T09:56:49.367Z,11.75
2022-07-26T09:59:19.030Z,13.02
2022-07-26T10:01:47.621Z,12.40
2022-07-26T10:04:16.213Z,11.98
2022-07-26T10:06:45.100Z,12.18
2022-07-26T10:09:16.989Z,13.07
2022-07-26T10:11:50.525Z,12.48
2022-07-26T10:14:42.333Z,12.10
2022-07-26T10:17:47.000Z,10.63
2022-07-26T10:20:44.220Z,11.00
2022-07-26T10:23:48.644Z,10.15
2022-07-26T10:26:40.550Z,7.93
2022-07-26T10:29:26.096Z,8.45
2022-07-26T10:32:16.718Z,8.13
2022-07-26T10:34:46.314Z,7.90
2022-07-26T10:37:27.659Z,7.43
2022-07-26T10:40:19.416Z,8.30
2022-07-26T10:42:47.821Z,7.80
2022-07-26T10:45:22.837Z,6.25
2022-07-26T10:48:16.737Z,7.93
2022-07-26T10:50:45.794Z,8.13
2022-07-26T10:53:20.010Z,6.63
2022-07-26T10:55:50.391Z,9.02
2022-07-26T10:58:18.805Z,7.38
2022-07-26T11:00:59.905Z,7.85
2022-07-26T11:03:38.950Z,8.15
2022-07-26T11:06:14.744Z,7.55
2022-07-26T11:08:47.966Z,6.47
2022-07-26T11:11:27.610Z,7.72
2022-07-26T11:14:05.402Z,6.82
2022-07-26T11:16:39.522Z,7.90
2022-07-26T11:19:17.381Z,7.60
2022-07-26T11:21:45.894Z,6.32
2022-07-26T11:24:14.595Z,7.15
2022-07-26T11:26:43.606Z,6.10
2022-07-26T11:29:17.233Z,6.38
2022-07-26T11:31:52.030Z,6.53
2022-07-26T11:34:29.161Z,6.07
2022-07-26T11:36:58.780Z,6.43
2022-07-26T11:39:29.759Z,5.43
2022-07-26T11:41:59.494Z,5.80
2022-07-26T11:44:27.922Z,6.28
2022-07-26T11:46:58.416Z,5.93
2022-07-26T11:50:00.538Z,5.75
2022-07-26T11:52:24.909Z,5.28
2022-07-26T11:54:54.928Z,5.80
2022-07-26T11:57:28.322Z,5.13
2022-07-26T11:59:56.444Z,5.25
2022-07-26T12:02:25.934Z,5.50
2022-07-26T12:05:14.741Z,5.22
2022-07-26T12:07:55.560Z,4.60
2022-07-26T12:10:24.358Z,4.93
2022-07-26T12:13:07.890Z,4.80
2022-07-26T12:15:45.944Z,5.05
2022-07-26T12:18:23.429Z,5.43
2022-07-26T12:21:05.784Z,5.18
2022-07-26T12:23:42.596Z,5.50
2022-07-26T12:26:21.945Z,5.25
2022-07-26T12:28:50.048Z,5.82
2022-07-26T12:31:25.795Z,5.80
2022-07-26T12:33:55.617Z,5.70
2022-07-26T12:36:28.434Z,4.40
2022-07-26T12:38:57.689Z,3.60
2022-07-26T12:41:36.641Z,3.33
2022-07-26T12:44:05.999Z,3.00
2022-07-26T12:46:37.183Z,3.05
2022-07-26T12:49:07.020Z,3.40
2022-07-26T12:51:35.359Z,2.60
2022-07-26T12:54:03.504Z,2.38
2022-07-26T12:56:31.613Z,2.88
2022-07-26T12:59:01.373Z,2.80
2022-07-26T13:01:30.470Z,2.70
2022-07-26T13:03:58.767Z,2.30
2022-07-26T13:06:28.204Z,2.25
2022-07-26T13:08:56.496Z,2.10
2022-07-26T13:11:24.957Z,2.40
2022-07-26T13:13:52.985Z,2.65
2022-07-26T13:16:21.063Z,2.55
2022-07-26T13:18:49.158Z,3.25
2022-07-26T13:21:17.187Z,2.78
2022-07-26T13:23:46.546Z,2.33
2022-07-26T13:26:14.726Z,2.45
2022-07-26T13:28:42.700Z,3.25
2022-07-26T13:31:11.644Z,2.90
2022-07-26T13:33:39.803Z,3.17
2022-07-26T13:36:07.961Z,3.55
2022-07-26T13:38:35.983Z,2.72
2022-07-26T13:41:06.001Z,2.42
2022-07-26T13:43:35.276Z,2.97
2022-07-26T13:46:04.242Z,2.75
2022-07-26T13:48:32.474Z,2.90
2022-07-26T13:51:00.921Z,2.83
2022-07-26T13:53:30.332Z,3.10
2022-07-26T13:55:58.417Z,2.88
2022-07-26T13:58:27.725Z,3.50
2022-07-26T14:00:56.560Z,3.22
2022-07-26T14:03:26.252Z,3.45
2022-07-26T14:05:54.852Z,3.50
2022-07-26T14:08:22.825Z,3.67
2022-07-26T14:10:50.812Z,3.30
2022-07-26T14:13:18.841Z,3.72
2022-07-26T14:15:48.206Z,3.22
2022-07-26T14:18:16.230Z,3.15
2022-07-26T14:20:45.937Z,3.40
2022-07-26T14:23:13.950Z,3.30
2022-07-26T14:25:41.952Z,3.17
2022-07-26T14:28:09.946Z,3.40
2022-07-26T14:30:37.955Z,3.22
2022-07-26T14:33:10.722Z,3.17
2022-07-26T14:35:38.788Z,2.45
2022-07-26T14:38:06.767Z,2.83
2022-07-26T14:40:34.802Z,3.95
2022-07-26T14:43:03.087Z,3.80
2022-07-26T14:45:31.265Z,3.78
2022-07-26T14:47:59.384Z,4.00
2022-07-26T14:50:38.413Z,3.65
2022-07-26T14:53:16.264Z,3.10
2022-07-26T14:55:44.329Z,4.20
2022-07-26T14:58:12.536Z,3.72
2022-07-26T15:00:40.651Z,3.80
2022-07-26T15:03:10.473Z,3.53
2022-07-26T15:05:39.824Z,4.13
2022-07-26T15:08:07.825Z,3.70
2022-07-26T15:10:35.860Z,4.38
2022-07-26T15:13:06.909Z,4.70
2022-07-26T15:15:37.443Z,5.22
2022-07-26T15:18:05.622Z,6.78
2022-07-26T15:20:33.705Z,6.47
2022-07-26T15:23:03.417Z,7.55
2022-07-26T15:25:31.372Z,7.55
2022-07-26T15:27:59.342Z,6.72
2022-07-26T15:30:27.530Z,6.05
2022-07-26T15:32:57.909Z,6.75
2022-07-26T15:35:25.990Z,6.80
2022-07-26T15:37:54.055Z,5.80
2022-07-26T15:40:23.424Z,4.88
2022-07-26T15:42:52.832Z,4.40
2022-07-26T15:45:21.944Z,4.03
2022-07-26T15:47:57.321Z,4.00
2022-07-26T15:50:27.564Z,4.00
2022-07-26T15:52:55.541Z,4.28
2022-07-26T15:55:24.958Z,4.32
2022-07-26T15:57:56.368Z,4.15
2022-07-26T16:00:24.457Z,3.95
2022-07-26T16:02:52.582Z,4.32
2022-07-26T16:05:20.985Z,3.40
2022-07-26T16:07:49.008Z,4.00
2022-07-26T16:10:17.313Z,4.25
2022-07-26T16:12:46.824Z,3.97
2022-07-26T16:15:15.137Z,4.00
2022-07-26T16:17:43.134Z,4.47
2022-07-26T16:20:11.494Z,4.50
2022-07-26T16:22:41.775Z,4.10
2022-07-26T16:25:16.101Z,5.07
2022-07-26T16:27:45.961Z,5.28
2022-07-26T16:30:15.567Z,4.78
2022-07-26T16:32:44.001Z,4.85
2022-07-26T16:35:12.159Z,4.25
2022-07-26T16:37:41.374Z,4.05
2022-07-26T16:40:11.204Z,4.45
2022-07-26T16:42:39.517Z,4.65
2022-07-26T16:45:09.941Z,4.35
2022-07-26T16:47:38.046Z,3.97
2022-07-26T16:50:07.207Z,4.32
2022-07-26T16:52:35.229Z,4.30
2022-07-26T16:55:04.031Z,4.18
2022-07-26T16:57:32.147Z,4.68
2022-07-26T17:00:00.203Z,4.53
2022-07-26T17:02:29.595Z,5.00
2022-07-26T17:04:58.692Z,4.88
2022-07-26T17:07:27.157Z,5.35
2022-07-26T17:09:58.274Z,4.80
2022-07-26T17:12:27.412Z,5.22
2022-07-26T17:14:58.440Z,4.85
2022-07-26T17:17:26.568Z,4.82
2022-07-26T17:19:56.131Z,5.05
2022-07-26T17:22:24.103Z,4.82
2022-07-26T17:24:52.164Z,4.05
2022-07-26T17:27:20.141Z,4.55
2022-07-26T17:29:48.491Z,5.07
2022-07-26T17:32:16.488Z,5.10
2022-07-26T17:34:44.515Z,4.47
2022-07-26T17:37:13.921Z,5.20
2022-07-26T17:39:52.051Z,5.53
2022-07-26T17:42:21.412Z,5.68
2022-07-26T17:44:49.720Z,5.63
2022-07-26T17:47:28.560Z,5.13
2022-07-26T17:52:51.757Z,5.22
2022-07-26T17:55:20.807Z,5.88
2022-07-26T17:57:50.028Z,6.00
2022-07-26T18:00:23.742Z,5.20
2022-07-26T18:02:57.629Z,5.78
2022-07-26T18:05:34.987Z,4.97
2022-07-26T18:08:05.938Z,5.38
2022-07-26T18:10:33.899Z,5.57
2022-07-26T18:13:01.948Z,6.07
2022-07-26T18:15:29.964Z,6.20
2022-07-26T18:17:57.940Z,5.72
2022-07-26T18:20:26.114Z,7.05
2022-07-26T18:22:55.439Z,7.53
2022-07-26T18:25:24.786Z,6.70
2022-07-26T18:27:53.812Z,6.55
2022-07-26T18:30:21.775Z,6.82
2022-07-26T18:32:49.853Z,6.72
2022-07-26T18:35:17.857Z,6.53
2022-07-26T18:37:46.558Z,6.80
2022-07-26T18:40:14.541Z,6.85
2022-07-26T18:42:43.942Z,6.65
2022-07-26T18:45:12.075Z,8.00
2022-07-26T18:47:41.321Z,8.20
2022-07-26T18:50:11.022Z,7.25
2022-07-26T18:52:39.401Z,7.40
2022-07-26T18:55:12.218Z,7.03
2022-07-26T18:57:42.844Z,7.88
2022-07-26T19:00:15.238Z,7.55
2022-07-26T19:02:44.705Z,7.60
2022-07-26T19:05:13.278Z,7.20
2022-07-26T19:07:42.648Z,7.55
2022-07-26T19:10:11.762Z,6.80
2022-07-26T19:12:39.957Z,7.40
2022-07-26T19:15:09.236Z,6.63
2022-07-26T19:17:38.736Z,6.90
2022-07-26T19:20:08.634Z,7.53
2022-07-26T19:22:37.253Z,7.03
2022-07-26T19:25:08.356Z,7.18
2022-07-26T19:27:37.441Z,6.63
2022-07-26T19:30:09.009Z,6.90
2022-07-26T19:32:39.291Z,6.88
2022-07-26T19:35:09.215Z,6.80
2022-07-26T19:37:37.372Z,6.97
2022-07-26T19:40:09.377Z,7.35
2022-07-26T19:42:37.422Z,7.28
2022-07-26T19:45:06.426Z,7.68
2022-07-26T19:47:35.804Z,7.57
2022-07-26T19:50:08.450Z,7.78
2022-07-26T19:52:36.503Z,7.32
2022-07-26T19:55:05.335Z,7.30
2022-07-26T19:57:33.395Z,7.65
2022-07-26T20:00:02.840Z,7.55
2022-07-26T20:02:40.994Z,7.85
2022-07-26T20:05:12.220Z,8.20
2022-07-26T20:07:40.741Z,7.40
2022-07-26T20:10:11.051Z,7.15
2022-07-26T20:12:39.132Z,7.63
2022-07-26T20:15:09.731Z,7.60
2022-07-26T20:17:39.689Z,6.75
2022-07-26T20:20:27.855Z,6.97
2022-07-26T20:23:14.571Z,6.30
2022-07-26T20:26:01.571Z,6.15
2022-07-26T20:28:49.030Z,6.03
2022-07-26T20:31:36.872Z,6.15
2022-07-26T20:34:23.683Z,5.50
2022-07-26T20:37:11.601Z,5.72
2022-07-26T20:39:58.407Z,6.60
2022-07-26T20:42:46.938Z,6.07
2022-07-26T20:45:36.971Z,5.97
2022-07-26T20:48:24.022Z,4.78
2022-07-26T20:51:13.745Z,5.18
2022-07-26T20:54:03.219Z,4.45
2022-07-26T20:56:50.407Z,4.15
2022-07-26T20:59:38.138Z,4.25
2022-07-26T21:02:25.007Z,4.40
2022-07-26T21:05:14.873Z,3.80
2022-07-26T21:08:01.450Z,3.97
2022-07-26T21:10:49.656Z,3.22
2022-07-26T21:13:36.607Z,3.67
2022-07-26T21:16:23.653Z,3.90
2022-07-26T21:19:10.630Z,4.07
2022-07-26T21:21:57.720Z,4.10
2022-07-26T21:24:44.141Z,4.05
2022-07-26T21:27:34.664Z,6.78
2022-07-26T21:30:21.305Z,5.70
2022-07-26T21:33:08.046Z,5.18
2022-07-26T21:35:54.995Z,4.68
2022-07-26T21:38:41.792Z,4.43
2022-07-26T21:41:28.653Z,5.70
2022-07-26T21:44:16.837Z,5.80
2022-07-26T21:47:05.697Z,5.63
2022-07-26T21:49:52.701Z,5.05
2022-07-26T21:52:39.630Z,4.97
2022-07-26T21:55:26.157Z,4.95
2022-07-26T21:58:13.430Z,3.85
2022-07-26T22:01:06.951Z,4.75
2022-07-26T22:03:54.717Z,4.78
2022-07-26T22:06:41.532Z,4.00
2022-07-26T22:09:28.317Z,4.38
2022-07-26T22:12:14.929Z,3.85
2022-07-26T22:15:01.831Z,4.13
2022-07-26T22:17:50.024Z,3.63
2022-07-26T22:20:36.953Z,3.85
2022-07-26T22:23:29.830Z,4.00
2022-07-26T22:26:16.563Z,3.42
2022-07-26T22:29:04.550Z,4.15
2022-07-26T22:31:51.218Z,3.92
2022-07-26T22:34:39.270Z,3.58
2022-07-26T22:37:25.929Z,4.55
2022-07-26T22:40:13.897Z,2.95
2022-07-26T22:43:01.008Z,3.95
2022-07-26T22:45:47.551Z,3.90
2022-07-26T22:48:38.078Z,3.53
2022-07-26T22:51:26.922Z,3.25
2022-07-26T22:54:14.010Z,3.63
2022-07-26T22:57:00.589Z,4.05
2022-07-26T22:59:47.597Z,3.17
2022-07-26T23:02:37.881Z,3.40
2022-07-26T23:05:30.760Z,3.03
2022-07-26T23:08:48.196Z,2.75
2022-07-26T23:11:36.229Z,2.80
2022-07-26T23:14:23.165Z,3.35
2022-07-26T23:17:09.805Z,3.15
2022-07-26T23:19:56.491Z,3.20
2022-07-26T23:22:43.364Z,3.10
2022-07-26T23:25:31.357Z,2.88
2022-07-26T23:28:36.189Z,3.38
2022-07-26T23:31:24.852Z,3.28
2022-07-26T23:34:11.271Z,2.85
2022-07-26T23:36:57.811Z,3.30
2022-07-26T23:39:44.520Z,4.07
2022-07-26T23:42:32.298Z,3.75
2022-07-26T23:45:19.526Z,3.00
2022-07-26T23:48:07.921Z,3.42
2022-07-26T23:50:54.429Z,3.30
2022-07-26T23:53:41.173Z,3.78
2022-07-26T23:56:28.231Z,3.60
2022-07-26T23:59:17.561Z,3.42
